Time;durP1;ratioP1;P1;durP2;ratioP2;P2;SDS_P1;SDS_P2;PMS_P1;PMS_P2;Temp;Humidity;BMP_temperature;BMP_pressure;BME280_temperature;BME280_humidity;BME280_pressure;Samples;Min_cycle;Max_cycle;Signal;HPM_P1;HPM_P2
2023/07/18 00:00:54;;;;;;;;;45.00;36.25;;;;;26.85;50.29;101517.59;2105919;28;46478;-56
2023/07/18 00:01:56;;;;;;;;;41.25;35.75;;;;;26.86;49.83;101518.47;2106190;28;46291;-56
2023/07/18 00:02:56;;;;;;;;;28.20;26.40;;;;;26.85;50.56;101516.72;2106015;28;46577;-56
2023/07/18 00:03:57;;;;;;;;;27.75;23.75;;;;;26.84;49.96;101515.00;2105853;28;46739;-56
2023/07/18 00:04:57;;;;;;;;;31.00;28.75;;;;;26.84;50.59;101515.00;2106031;28;46661;-56
2023/07/18 00:05:58;;;;;;;;;24.25;24.25;;;;;26.83;50.27;101513.25;2106164;28;46096;-59
2023/07/18 00:06:58;;;;;;;;;15.75;14.00;;;;;26.83;49.96;101516.84;2106306;28;46467;-56
2023/07/18 00:07:59;;;;;;;;;13.75;9.25;;;;;26.82;50.65;101515.13;2105887;28;46556;-56
2023/07/18 00:08:59;;;;;;;;;5.75;5.75;;;;;27.12;49.54;101516.47;2106220;28;46249;-57
2023/07/18 00:10:00;;;;;;;;;7.00;6.25;;;;;26.91;50.15;101516.22;2106107;28;46706;-58
2023/07/18 00:11:00;;;;;;;;;6.25;5.25;;;;;26.83;50.58;101519.56;2105704;28;45231;-54
2023/07/18 00:12:01;;;;;;;;;8.50;7.75;;;;;26.77;50.64;101520.03;2106107;28;46279;-57
2023/07/18 00:13:02;;;;;;;;;10.50;9.25;;;;;26.77;50.45;101524.59;2105960;28;46974;-57
2023/07/18 00:14:03;;;;;;;;;13.20;9.60;;;;;26.74;50.85;101522.13;2106016;28;46516;-57
2023/07/18 00:15:05;;;;;;;;;13.25;11.00;;;;;26.72;50.94;101524.97;2096819;28;46838;-57
2023/07/18 00:16:05;;;;;;;;;26.20;23.00;;;;;26.74;50.73;101519.41;2097313;28;46430;-57
2023/07/18 00:17:05;;;;;;;;;16.75;14.25;;;;;26.74;50.38;101519.41;2105453;28;46263;-56
2023/07/18 00:18:06;;;;;;;;;15.50;14.50;;;;;26.73;51.06;101523.97;2097553;28;46110;-56
2023/07/18 00:19:09;;;;;;;;;14.20;14.20;;;;;26.72;50.86;101516.81;2097096;28;46332;-55
2023/07/18 00:20:14;;;;;;;;;13.40;12.00;;;;;26.73;51.09;101514.94;2105887;28;45368;-56
2023/07/18 00:21:14;;;;;;;;;13.00;12.40;;;;;26.71;50.78;101520.50;2106115;28;45797;-57
2023/07/18 00:22:14;;;;;;;;;21.50;21.50;;;;;26.72;50.88;101519.53;2105856;28;46635;-57
2023/07/18 00:23:15;;;;;;;;;19.25;18.00;;;;;26.72;50.68;101522.25;2105947;28;46210;-56
2023/07/18 00:24:15;;;;;;;;;22.75;22.00;;;;;26.68;50.71;101520.75;2105825;28;46559;-56
2023/07/18 00:25:19;;;;;;;;;14.50;12.75;;;;;26.68;51.30;101520.75;2105675;28;46087;-58
2023/07/18 00:26:20;;;;;;;;;9.40;9.00;;;;;26.65;50.66;101521.84;2106170;28;46948;-57
2023/07/18 00:27:21;;;;;;;;;5.00;4.00;;;;;26.65;51.19;101512.81;2106049;28;46347;-57
2023/07/18 00:28:21;;;;;;;;;4.00;4.00;;;;;26.62;51.16;101510.31;2096936;28;46436;-57
2023/07/18 00:29:21;;;;;;;;;5.50;5.50;;;;;26.61;51.41;101508.59;2096586;28;46324;-58
2023/07/18 00:30:22;;;;;;;;;5.00;5.00;;;;;26.60;51.41;101517.75;2105870;28;46316;-57
2023/07/18 00:31:22;;;;;;;;;4.50;2.50;;;;;26.59;51.23;101508.72;2105844;28;46518;-57
2023/07/18 00:32:23;;;;;;;;;2.75;2.25;;;;;26.58;51.28;101511.56;2097147;28;46116;-55
2023/07/18 00:33:23;;;;;;;;;2.00;2.00;;;;;26.56;50.88;101508.94;2096955;28;46316;-57
2023/07/18 00:34:24;;;;;;;;;3.00;2.00;;;;;26.57;51.36;101510.69;2097271;28;46340;-58
2023/07/18 00:35:26;;;;;;;;;5.00;2.00;;;;;26.58;51.16;101504.25;2100389;28;46295;-58
2023/07/18 00:36:27;;;;;;;;;2.60;2.60;;;;;26.57;50.98;101507.97;2106002;28;46481;-57
2023/07/18 00:37:28;;;;;;;;;6.25;6.25;;;;;26.57;51.59;101504.38;2106181;28;45885;-57
2023/07/18 00:38:28;;;;;;;;;3.00;2.00;;;;;26.56;50.89;101510.81;2105947;28;46691;-59
2023/07/18 00:39:28;;;;;;;;;4.75;4.25;;;;;26.54;50.97;101510.03;2106183;28;46193;-56
2023/07/18 00:40:29;;;;;;;;;3.25;3.25;;;;;26.52;51.28;101506.56;2105970;28;46597;-56
2023/07/18 00:41:29;;;;;;;;;0.75;0.75;;;;;26.49;51.38;101504.06;2105756;28;46315;-56
2023/07/18 00:42:29;;;;;;;;;5.00;5.00;;;;;26.49;51.59;101495.91;2105782;28;46354;-57
2023/07/18 00:43:33;;;;;;;;;6.00;4.75;;;;;26.48;50.97;101499.63;2105854;28;46277;-58
2023/07/18 00:44:33;;;;;;;;;9.60;9.20;;;;;26.42;51.06;101500.94;2105937;28;46422;-55
2023/07/18 00:45:34;;;;;;;;;6.25;6.00;;;;;26.40;51.71;101494.75;2096729;28;46298;-57
2023/07/18 00:46:34;;;;;;;;;3.25;3.00;;;;;26.37;51.15;101495.84;2096825;28;46017;-57
2023/07/18 00:47:40;;;;;;;;;3.50;3.50;;;;;26.42;51.33;101497.34;2105926;28;46473;-57
2023/07/18 00:48:41;;;;;;;;;4.40;2.40;;;;;26.39;51.16;101499.31;2105621;28;46689;-59
2023/07/18 00:49:42;;;;;;;;;2.50;2.50;;;;;26.43;51.46;101496.41;2105876;28;46924;-58
2023/07/18 00:50:42;;;;;;;;;2.00;2.00;;;;;26.43;51.68;101496.41;2105319;28;46747;-58
2023/07/18 00:51:43;;;;;;;;;4.50;4.50;;;;;26.42;51.32;101495.50;2105781;28;46422;-57
2023/07/18 00:52:51;;;;;;;;;4.25;4.25;;;;;26.42;51.60;101495.50;2105731;28;46499;-56
2023/07/18 00:53:53;;;;;;;;;3.20;2.60;;;;;26.39;51.79;101493.00;2105704;28;46412;-58
2023/07/18 00:54:53;;;;;;;;;2.20;2.20;;;;;26.39;51.72;101491.16;2105276;28;46621;-57
2023/07/18 00:55:54;;;;;;;;;2.00;2.00;;;;;26.39;51.76;101491.16;2105885;28;46232;-57
2023/07/18 00:56:55;;;;;;;;;0.60;0.60;;;;;26.39;50.92;101495.72;2105485;28;47317;-57
2023/07/18 00:57:55;;;;;;;;;3.50;3.50;;;;;26.37;51.05;101486.81;2105735;28;46193;-57
2023/07/18 00:58:56;;;;;;;;;2.50;2.00;;;;;26.35;51.16;101488.75;2105711;28;46248;-57
2023/07/18 00:59:56;;;;;;;;;1.67;1.00;;;;;26.32;51.07;101489.88;2105669;28;46429;-56
2023/07/18 01:00:56;;;;;;;;;4.50;3.50;;;;;26.32;51.34;101486.28;2105363;28;46274;-57
2023/07/18 01:01:57;;;;;;;;;2.25;2.25;;;;;26.31;50.85;101490.84;2105819;28;46706;-56
2023/07/18 01:02:57;;;;;;;;;1.50;1.00;;;;;26.30;51.68;101488.25;2105353;28;46668;-58
2023/07/18 01:03:58;;;;;;;;;3.50;2.00;;;;;26.28;51.58;101490.19;2105714;28;46640;-57
2023/07/18 01:04:58;;;;;;;;;1.25;1.25;;;;;26.27;50.98;101492.06;2105907;28;47153;-56
2023/07/18 01:05:58;;;;;;;;;1.00;1.00;;;;;26.25;51.45;101485.00;2105928;28;46785;-56
2023/07/18 01:07:00;;;;;;;;;2.00;2.00;;;;;26.26;51.23;101478.56;2105501;28;46654;-55
2023/07/18 01:08:00;;;;;;;;;3.80;2.00;;;;;26.22;51.23;101485.22;2105740;27;46810;-56
2023/07/18 01:09:01;;;;;;;;;2.50;1.75;;;;;26.24;51.25;101486.84;2104765;28;46212;-56
2023/07/18 01:10:16;;;;;;;;;1.00;1.00;;;;;26.24;51.52;101485.97;2105363;28;46256;-57
2023/07/18 01:11:18;;;;;;;;;0.00;0.00;;;;;26.26;51.49;101484.88;2105538;28;46722;-56
2023/07/18 01:12:18;;;;;;;;;1.50;1.25;;;;;26.27;51.79;101480.31;2105671;28;46683;-57
2023/07/18 01:13:18;;;;;;;;;0.00;0.00;;;;;26.28;51.83;101484.75;2105647;28;46746;-55
2023/07/18 01:14:21;;;;;;;;;1.00;1.00;;;;;26.28;51.51;101482.03;2105374;28;45862;-56
2023/07/18 01:15:23;;;;;;;;;1.00;1.00;;;;;26.28;51.13;101479.31;2097024;28;45212;-57
2023/07/18 01:16:24;;;;;;;;;2.40;1.60;;;;;26.30;51.13;101480.09;2097133;28;46924;-57
2023/07/18 01:17:24;;;;;;;;;1.75;1.75;;;;;26.29;51.70;101478.31;2106136;28;46236;-57
2023/07/18 01:18:24;;;;;;;;;1.00;1.00;;;;;26.30;51.02;101480.09;2096923;28;46279;-58
2023/07/18 01:19:25;;;;;;;;;2.00;1.00;;;;;26.30;51.77;101472.78;2096517;28;46456;-57
2023/07/18 01:20:27;;;;;;;;;1.00;1.00;;;;;26.28;50.89;101472.00;2096765;28;46245;-56
2023/07/18 01:21:27;;;;;;;;;2.00;2.00;;;;;26.27;51.15;101477.56;2096824;28;46720;-56
2023/07/18 01:22:28;;;;;;;;;2.00;2.00;;;;;26.23;51.59;101476.09;2087480;28;46713;-58
2023/07/18 01:23:28;;;;;;;;;2.00;1.33;;;;;26.23;51.82;101478.81;2087685;28;46672;-58
2023/07/18 01:24:28;;;;;;;;;1.00;1.00;;;;;26.21;51.68;101476.19;2105591;28;46603;-58
2023/07/18 01:25:30;;;;;;;;;1.67;1.67;;;;;26.11;51.67;101472.44;2105564;28;46435;-56
2023/07/18 01:26:30;;;;;;;;;2.00;1.25;;;;;26.09;51.82;101472.53;2105620;28;46563;-57
2023/07/18 01:27:31;;;;;;;;;2.67;2.00;;;;;26.08;52.00;101476.25;2105641;28;46725;-57
2023/07/18 01:28:31;;;;;;;;;2.00;2.00;;;;;26.13;51.43;101478.63;2105203;28;46834;-54
2023/07/18 01:29:32;;;;;;;;;2.00;2.00;;;;;26.16;51.21;101472.94;2105609;28;46444;-57
2023/07/18 01:30:33;;;;;;;;;1.60;1.60;;;;;26.13;51.55;101477.75;2105501;27;46932;-55
2023/07/18 01:31:34;;;;;;;;;1.75;1.75;;;;;26.10;51.56;101471.56;2105553;28;46827;-56
2023/07/18 01:32:35;;;;;;;;;0.33;0.33;;;;;26.09;52.07;101477.13;2105922;28;46383;-57
2023/07/18 01:33:35;;;;;;;;;3.80;2.60;;;;;26.08;51.69;101478.97;2105448;28;46284;-55
2023/07/18 01:34:36;;;;;;;;;2.75;2.75;;;;;26.13;51.92;101475.91;2096584;28;46549;-55
2023/07/18 01:35:36;;;;;;;;;2.00;1.67;;;;;26.14;51.92;101480.34;2096614;28;47396;-57
2023/07/18 01:36:36;;;;;;;;;2.00;1.00;;;;;26.14;51.57;101477.63;2105659;28;46553;-57
2023/07/18 01:37:38;;;;;;;;;2.00;2.00;;;;;26.14;51.40;101479.47;2105388;28;46356;-55
2023/07/18 01:38:38;;;;;;;;;1.25;1.25;;;;;26.11;51.61;101481.47;2105233;28;46590;-57
2023/07/18 01:39:38;;;;;;;;;1.00;1.00;;;;;26.06;51.84;101478.22;2105712;28;46763;-55
2023/07/18 01:40:39;;;;;;;;;0.67;0.67;;;;;26.08;51.83;101475.38;2105497;28;46421;-56
2023/07/18 01:41:39;;;;;;;;;2.67;2.00;;;;;26.06;51.87;101477.34;2104705;28;46446;-57
2023/07/18 01:42:42;;;;;;;;;2.50;2.00;;;;;25.98;52.04;101472.47;2104894;28;46221;-58
2023/07/18 01:43:42;;;;;;;;;0.25;0.25;;;;;26.06;51.55;101477.34;2096401;28;46350;-56
2023/07/18 01:44:43;;;;;;;;;3.00;1.33;;;;;26.04;51.94;101477.47;2105464;28;46226;-56
2023/07/18 01:45:44;;;;;;;;;2.00;2.00;;;;;25.99;51.90;101471.50;2105499;28;46822;-55
2023/07/18 01:46:44;;;;;;;;;1.75;1.75;;;;;26.02;52.01;101473.97;2105270;27;46375;-58
2023/07/18 01:47:46;;;;;;;;;3.50;3.50;;;;;26.02;52.15;101470.38;2096592;28;46465;-58
2023/07/18 01:48:46;;;;;;;;;4.00;1.00;;;;;26.00;52.21;101469.63;2096489;28;46391;-58
2023/07/18 01:49:47;;;;;;;;;1.25;1.25;;;;;26.00;51.83;101473.22;2105347;28;46167;-59
2023/07/18 01:50:47;;;;;;;;;1.00;1.00;;;;;25.95;52.20;101469.13;2105453;28;46682;-56
2023/07/18 01:51:48;;;;;;;;;3.00;2.00;;;;;25.89;52.07;101473.16;2105608;28;46273;-56
2023/07/18 01:52:49;;;;;;;;;2.00;2.00;;;;;25.87;52.16;101468.81;2105724;28;46338;-57
2023/07/18 01:53:49;;;;;;;;;2.67;1.67;;;;;25.86;51.98;101467.09;2105370;28;46228;-58
2023/07/18 01:54:49;;;;;;;;;1.50;1.25;;;;;25.85;52.52;101465.34;2104937;28;46362;-58
2023/07/18 01:55:50;;;;;;;;;2.00;2.00;;;;;25.84;52.18;101469.91;2105519;28;45453;-56
2023/07/18 01:56:50;;;;;;;;;4.00;2.00;;;;;25.84;52.69;101460.88;2105304;28;45967;-57
2023/07/18 01:57:50;;;;;;;;;2.67;2.00;;;;;25.83;52.43;101459.16;2105151;28;46527;-59
2023/07/18 01:58:51;;;;;;;;;1.00;0.33;;;;;25.88;52.18;101460.53;2105740;28;46214;-56
2023/07/18 01:59:51;;;;;;;;;4.00;2.33;;;;;25.81;52.59;101460.13;2105326;28;46283;-56
2023/07/18 02:00:52;;;;;;;;;2.00;2.00;;;;;25.81;52.29;101451.97;2105242;28;46714;-56
2023/07/18 02:01:52;;;;;;;;;1.00;1.00;;;;;25.87;52.71;101453.38;2105486;28;47154;-57
2023/07/18 02:02:53;;;;;;;;;3.33;1.33;;;;;25.81;52.99;101448.41;2105554;28;46540;-56
2023/07/18 02:03:53;;;;;;;;;2.00;2.00;;;;;25.88;52.06;101451.50;2105302;28;46689;-58
2023/07/18 02:04:54;;;;;;;;;1.00;1.00;;;;;25.82;52.80;101447.41;2096192;28;46347;-57
2023/07/18 02:05:54;;;;;;;;;3.00;2.25;;;;;25.83;52.75;101449.16;2096331;28;46843;-57
2023/07/18 02:06:54;;;;;;;;;2.00;2.00;;;;;25.89;52.69;101445.97;2105342;28;46130;-57
2023/07/18 02:07:55;;;;;;;;;1.50;1.50;;;;;25.84;52.36;101447.28;2105259;28;46705;-56
2023/07/18 02:08:55;;;;;;;;;1.33;1.33;;;;;25.82;52.64;101450.13;2105726;28;46658;-57
2023/07/18 02:09:57;;;;;;;;;2.50;2.50;;;;;25.88;52.05;101444.22;2105114;28;46499;-57
2023/07/18 02:10:57;;;;;;;;;1.00;1.00;;;;;25.86;52.06;101448.03;2105383;28;46792;-57
2023/07/18 02:11:57;;;;;;;;;2.00;2.00;;;;;25.74;52.42;101449.81;2105218;27;46689;-57
2023/07/18 02:13:01;;;;;;;;;3.67;2.67;;;;;25.73;52.99;101454.38;2105085;28;46480;-57
2023/07/18 02:14:03;;;;;;;;;2.50;1.00;;;;;25.73;53.00;101443.50;2105247;28;46772;-58
2023/07/18 02:15:05;;;;;;;;;1.50;1.50;;;;;25.73;52.87;101437.22;2105386;28;46404;-58
2023/07/18 02:16:05;;;;;;;;;0.75;0.75;;;;;25.75;52.80;101454.28;2104585;28;46932;-57
2023/07/18 02:17:08;;;;;;;;;3.00;2.00;;;;;25.74;52.83;101444.38;2105264;28;46379;-56
2023/07/18 02:18:08;;;;;;;;;1.25;1.25;;;;;25.74;52.33;101439.81;2104930;28;46683;-57
2023/07/18 02:19:08;;;;;;;;;0.67;0.67;;;;;25.76;52.41;101442.41;2105265;28;46527;-58
2023/07/18 02:20:11;;;;;;;;;2.00;2.00;;;;;25.75;52.46;101441.53;2086996;28;45733;-56
2023/07/18 02:21:12;;;;;;;;;1.50;0.75;;;;;25.75;52.54;101433.38;2088042;28;46324;-56
2023/07/18 02:22:12;;;;;;;;;1.75;1.75;;;;;25.77;52.85;101436.84;2105274;28;46371;-57
2023/07/18 02:23:12;;;;;;;;;1.00;1.00;;;;;25.77;52.56;101436.00;2105255;28;46598;-57
2023/07/18 02:24:13;;;;;;;;;2.00;2.00;;;;;25.77;52.91;101430.56;2095475;28;46256;-56
2023/07/18 02:25:17;;;;;;;;;2.00;2.00;;;;;25.76;52.89;101432.41;2095896;28;46567;-56
2023/07/18 02:26:17;;;;;;;;;3.75;2.75;;;;;25.75;52.38;101427.09;2095661;28;46391;-57
2023/07/18 02:27:19;;;;;;;;;2.00;2.00;;;;;25.76;52.55;101429.69;2087021;28;46161;-56
2023/07/18 02:28:20;;;;;;;;;1.75;1.75;;;;;25.74;52.32;101430.78;2087870;28;46755;-57
2023/07/18 02:29:20;;;;;;;;;1.00;1.00;;;;;25.72;52.67;101428.19;2086799;28;46252;-57
2023/07/18 02:30:21;;;;;;;;;0.00;0.00;;;;;25.69;52.77;101424.84;2087257;28;46511;-55
2023/07/18 02:31:21;;;;;;;;;2.00;1.00;;;;;25.67;52.79;101419.47;2095993;28;46794;-57
2023/07/18 02:32:22;;;;;;;;;1.00;1.00;;;;;25.65;52.26;101424.13;2095742;28;46308;-56
2023/07/18 02:33:22;;;;;;;;;2.00;0.67;;;;;25.66;52.58;101425.00;2087686;28;46228;-57
2023/07/18 02:34:25;;;;;;;;;1.00;1.00;;;;;25.65;52.47;101420.56;2087267;28;46500;-57
2023/07/18 02:35:26;;;;;;;;;0.25;0.25;;;;;25.65;52.65;101417.84;2095377;28;46967;-57
2023/07/18 02:36:28;;;;;;;;;1.00;1.00;;;;;25.65;52.87;101420.56;2095793;28;46430;-57
2023/07/18 02:37:28;;;;;;;;;1.00;0.00;;;;;25.63;52.32;101412.50;2095703;28;46470;-56
2023/07/18 02:38:29;;;;;;;;;1.75;1.75;;;;;25.64;52.36;101418.81;2095684;28;47252;-55
2023/07/18 02:39:32;;;;;;;;;1.00;1.00;;;;;25.62;52.00;101413.50;2095755;28;46749;-56
2023/07/18 02:40:32;;;;;;;;;1.25;1.25;;;;;25.62;52.63;101426.22;2095719;28;46435;-57
2023/07/18 02:41:34;;;;;;;;;0.00;0.00;;;;;25.62;52.80;101413.50;2095615;28;46761;-57
2023/07/18 02:42:35;;;;;;;;;2.25;2.00;;;;;25.61;52.57;101422.63;2095678;28;46776;-57
2023/07/18 02:43:35;;;;;;;;;0.67;0.67;;;;;25.60;52.76;101425.47;2095547;28;46482;-58
2023/07/18 02:44:36;;;;;;;;;0.33;0.33;;;;;25.58;53.01;101419.28;2095468;28;46187;-55
2023/07/18 02:45:36;;;;;;;;;0.75;0.75;;;;;25.56;52.53;101421.25;2095933;28;46648;-57
2023/07/18 02:46:37;;;;;;;;;2.00;2.00;;;;;25.53;52.69;101420.47;2095732;28;46152;-56
2023/07/18 02:47:38;;;;;;;;;2.00;1.00;;;;;25.55;53.09;101419.50;2095700;28;46145;-57
2023/07/18 02:48:39;;;;;;;;;1.00;1.00;;;;;25.54;52.87;101424.09;2095951;28;46917;-56
2023/07/18 02:49:40;;;;;;;;;3.00;2.00;;;;;25.54;52.53;101413.22;2095910;28;46415;-57
2023/07/18 02:50:40;;;;;;;;;1.25;1.25;;;;;25.52;52.43;101410.56;2095709;28;46555;-55
2023/07/18 02:51:41;;;;;;;;;2.00;2.00;;;;;25.53;52.85;101414.16;2095396;28;46336;-55
2023/07/18 02:52:41;;;;;;;;;0.67;0.67;;;;;25.53;53.00;101412.31;2095997;28;46589;-57
2023/07/18 02:53:41;;;;;;;;;1.75;1.75;;;;;25.52;53.02;101412.44;2095248;28;46863;-58
2023/07/18 02:54:41;;;;;;;;;1.00;1.00;;;;;25.52;53.30;101410.56;2095657;28;46682;-55
2023/07/18 02:55:42;;;;;;;;;1.00;1.00;;;;;25.51;53.30;101411.56;2098084;28;46497;-57
2023/07/18 02:56:42;;;;;;;;;2.33;2.33;;;;;25.49;52.82;101407.22;2104781;28;46834;-57
2023/07/18 02:57:43;;;;;;;;;3.00;3.00;;;;;25.47;53.31;101404.63;2104941;28;46639;-57
2023/07/18 02:58:43;;;;;;;;;1.25;1.25;;;;;25.46;53.16;101404.75;2105321;28;46576;-57
2023/07/18 02:59:44;;;;;;;;;3.00;3.00;;;;;25.46;53.14;101411.03;2104742;28;46195;-57
2023/07/18 03:00:44;;;;;;;;;1.33;1.33;;;;;25.47;53.25;101409.19;2104874;28;46531;-57
2023/07/18 03:01:44;;;;;;;;;1.00;1.00;;;;;25.46;52.95;101402.03;2104940;28;46600;-57
2023/07/18 03:02:49;;;;;;;;;2.00;2.00;;;;;25.50;53.31;101406.25;2105234;28;46599;-55
2023/07/18 03:03:49;;;;;;;;;2.00;1.80;;;;;25.47;52.93;101392.88;2104745;28;46817;-55
2023/07/18 03:04:50;;;;;;;;;2.00;2.00;;;;;25.46;53.53;101396.59;2105103;28;46567;-57
2023/07/18 03:05:55;;;;;;;;;3.00;1.25;;;;;25.46;53.49;101391.16;2104994;28;46617;-56
2023/07/18 03:06:55;;;;;;;;;1.00;1.00;;;;;25.44;53.47;101399.41;2104741;28;46829;-57
2023/07/18 03:07:55;;;;;;;;;2.00;1.25;;;;;25.42;53.40;101393.22;2104877;28;46302;-57
2023/07/18 03:08:56;;;;;;;;;1.00;1.00;;;;;25.43;52.98;101394.97;2105176;28;46644;-57
2023/07/18 03:09:57;;;;;;;;;2.50;2.50;;;;;25.42;53.32;101395.09;2104531;28;46710;-58
2023/07/18 03:11:00;;;;;;;;;1.75;1.75;;;;;25.41;52.82;101390.59;2105107;28;46806;-57
2023/07/18 03:12:01;;;;;;;;;1.75;1.75;;;;;25.38;53.40;101388.97;2105008;28;46880;-58
2023/07/18 03:13:01;;;;;;;;;1.25;1.25;;;;;25.37;53.42;101389.97;2105113;28;45982;-57
2023/07/18 03:14:01;;;;;;;;;1.67;0.67;;;;;25.37;52.98;101389.97;2104688;28;46285;-56
2023/07/18 03:15:02;;;;;;;;;1.00;1.00;;;;;25.38;53.23;101390.84;2104942;28;46210;-57
2023/07/18 03:16:04;;;;;;;;;0.50;0.50;;;;;25.36;53.35;101384.66;2095881;28;46364;-57
2023/07/18 03:17:05;;;;;;;;;0.00;0.00;;;;;25.33;53.31;101385.75;2095996;28;46400;-55
2023/07/18 03:18:06;;;;;;;;;1.67;0.00;;;;;25.33;53.70;101380.31;2104344;28;46543;-57
2023/07/18 03:19:08;;;;;;;;;1.75;1.75;;;;;25.34;53.62;101384.75;2104910;28;47018;-57
2023/07/18 03:20:19;;;;;;;;;3.20;2.20;;;;;25.34;53.46;101378.47;2104776;28;47069;-55
2023/07/18 03:21:20;;;;;;;;;1.00;1.00;;;;;25.33;53.44;101383.03;2095196;28;46304;-56
2023/07/18 03:22:20;;;;;;;;;4.00;2.00;;;;;25.31;53.09;101382.28;2096730;28;46754;-55
2023/07/18 03:23:21;;;;;;;;;1.33;1.33;;;;;25.31;53.43;101379.56;2104891;28;46470;-57
2023/07/18 03:24:21;;;;;;;;;2.00;2.00;;;;;25.33;53.76;101385.75;2104453;28;46418;-57
2023/07/18 03:25:21;;;;;;;;;3.33;2.33;;;;;25.33;53.61;101384.88;2104787;28;46230;-56
2023/07/18 03:26:22;;;;;;;;;1.00;1.00;;;;;25.33;53.17;101382.16;2104718;28;46782;-55
2023/07/18 03:27:22;;;;;;;;;1.50;1.50;;;;;25.30;53.00;101374.25;2104832;28;46536;-56
2023/07/18 03:28:22;;;;;;;;;2.25;0.50;;;;;25.30;53.70;101382.41;2104866;28;46471;-57
2023/07/18 03:29:23;;;;;;;;;1.50;1.50;;;;;25.29;53.23;101378.81;2104741;28;46653;-57
2023/07/18 03:30:23;;;;;;;;;2.00;2.00;;;;;25.28;53.74;101374.31;2104965;28;46570;-57
2023/07/18 03:31:23;;;;;;;;;1.00;1.00;;;;;25.28;53.68;101382.47;2104617;27;46274;-57
2023/07/18 03:32:24;;;;;;;;;1.00;1.00;;;;;25.30;53.12;101379.69;2105918;28;46463;-57
2023/07/18 03:33:25;;;;;;;;;1.00;0.00;;;;;25.29;53.36;101384.25;2106602;27;46360;-57
2023/07/18 03:34:25;;;;;;;;;1.00;1.00;;;;;25.30;53.57;101380.53;2106342;28;46453;-57
2023/07/18 03:35:25;;;;;;;;;2.00;1.00;;;;;25.31;53.80;101381.41;2106179;28;46489;-57
2023/07/18 03:36:27;;;;;;;;;4.00;2.67;;;;;25.30;53.43;101380.53;2106131;28;46492;-57
2023/07/18 03:37:27;;;;;;;;;4.50;3.00;;;;;25.31;53.20;101385.00;2105957;28;46420;-57
2023/07/18 03:38:28;;;;;;;;;2.67;2.00;;;;;25.31;53.67;101384.13;2106816;28;46326;-57
2023/07/18 03:39:28;;;;;;;;;2.00;2.00;;;;;25.30;53.25;101382.41;2106038;28;46252;-56
2023/07/18 03:40:28;;;;;;;;;1.00;1.00;;;;;25.30;53.64;101377.81;2106282;28;46249;-57
2023/07/18 03:41:29;;;;;;;;;1.00;1.00;;;;;25.29;53.59;101384.25;2097247;28;46731;-56
2023/07/18 03:42:29;;;;;;;;;2.00;0.67;;;;;25.29;53.24;101375.22;2096924;28;46791;-56
2023/07/18 03:43:29;;;;;;;;;2.33;2.33;;;;;25.27;53.46;101379.88;2097793;28;46403;-56
2023/07/18 03:44:30;;;;;;;;;1.00;1.00;;;;;25.27;53.97;101378.03;2104670;28;46120;-57
2023/07/18 03:45:30;;;;;;;;;3.00;3.00;;;;;25.27;53.49;101375.31;2105814;28;46197;-56
2023/07/18 03:46:30;;;;;;;;;2.00;2.00;;;;;25.25;53.39;101377.28;2097330;28;46217;-59
2023/07/18 03:47:31;;;;;;;;;1.00;1.00;;;;;25.23;53.35;101371.97;2088719;28;46302;-56
2023/07/18 03:48:31;;;;;;;;;2.67;1.33;;;;;25.20;53.32;101371.31;2088812;28;46512;-57
2023/07/18 03:49:32;;;;;;;;;3.00;2.00;;;;;25.21;53.51;101376.63;2097339;28;46373;-56
2023/07/18 03:50:32;;;;;;;;;2.00;2.00;;;;;25.19;53.86;101373.16;2106297;28;46154;-57
2023/07/18 03:51:33;;;;;;;;;1.33;1.33;;;;;25.21;53.72;101371.22;2106494;28;46220;-54
2023/07/18 03:52:33;;;;;;;;;2.00;2.00;;;;;25.21;53.69;101371.22;2106149;28;45472;-56
2023/07/18 03:53:33;;;;;;;;;3.00;2.00;;;;;25.21;53.42;101371.22;2106244;28;46803;-57
2023/07/18 03:54:34;;;;;;;;;2.00;2.00;;;;;25.21;53.73;101371.22;2106449;28;46802;-55
2023/07/18 03:55:34;;;;;;;;;2.00;2.00;;;;;25.19;53.30;101372.31;2106124;28;46620;-56
2023/07/18 03:56:34;;;;;;;;;3.00;3.00;;;;;25.18;53.36;101366.00;2106161;28;46926;-56
2023/07/18 03:57:35;;;;;;;;;3.67;2.00;;;;;25.19;53.48;101377.75;2096387;28;46175;-55
2023/07/18 03:58:35;;;;;;;;;2.33;1.67;;;;;25.19;53.17;101366.88;2096498;28;46609;-58
2023/07/18 03:59:35;;;;;;;;;2.33;2.33;;;;;25.19;53.75;101366.88;2097304;28;46202;-57
2023/07/18 04:00:36;;;;;;;;;2.00;2.00;;;;;25.18;53.47;101359.72;2106250;28;46764;-57
2023/07/18 04:01:36;;;;;;;;;2.00;2.00;;;;;25.16;53.88;101367.97;2105782;27;46679;-57
2023/07/18 04:02:36;;;;;;;;;1.00;1.00;;;;;25.14;53.43;101367.19;2106026;28;46192;-56
2023/07/18 04:03:37;;;;;;;;;1.67;1.67;;;;;25.14;53.86;101369.03;2106532;28;46276;-55
2023/07/18 04:04:38;;;;;;;;;1.00;1.00;;;;;25.11;53.84;101364.69;2105538;28;46540;-56
2023/07/18 04:05:38;;;;;;;;;1.33;1.33;;;;;25.10;53.47;101362.97;2105756;28;46197;-59
2023/07/18 04:06:39;;;;;;;;;2.25;2.25;;;;;25.10;54.03;101364.81;2097302;28;46709;-58
2023/07/18 04:07:41;;;;;;;;;3.00;2.00;;;;;25.11;53.65;101366.53;2097122;28;46365;-57
2023/07/18 04:08:42;;;;;;;;;1.40;1.40;;;;;25.10;53.99;101359.38;2105389;28;46935;-57
2023/07/18 04:09:43;;;;;;;;;2.00;2.00;;;;;25.10;53.80;101370.25;2103805;28;46592;-57
2023/07/18 04:10:43;;;;;;;;;2.25;2.25;;;;;25.10;53.90;101362.09;2105892;28;46791;-57
2023/07/18 04:11:46;;;;;;;;;1.00;1.00;;;;;25.08;53.61;101367.66;2106038;28;46632;-56
2023/07/18 04:12:46;;;;;;;;;4.40;3.20;;;;;25.09;53.87;101360.38;2105864;28;46960;-57
2023/07/18 04:13:46;;;;;;;;;4.50;4.50;;;;;25.08;53.66;101355.91;2106177;28;46203;-57
2023/07/18 04:14:46;;;;;;;;;3.00;3.00;;;;;25.05;54.09;101354.28;2105936;28;46678;-57
2023/07/18 04:15:49;;;;;;;;;4.00;3.00;;;;;25.09;54.00;101358.50;2106090;28;46684;-56
2023/07/18 04:16:51;;;;;;;;;4.60;4.40;;;;;25.08;54.03;101356.78;2106464;28;45655;-56
2023/07/18 04:17:51;;;;;;;;;2.20;2.00;;;;;25.06;54.10;101361.47;2106022;28;46617;-58
2023/07/18 04:18:52;;;;;;;;;3.00;3.00;;;;;25.06;54.24;101357.88;2096478;28;46917;-57
2023/07/18 04:19:52;;;;;;;;;2.00;2.00;;;;;25.05;53.70;101359.72;2088926;28;46801;-57
2023/07/18 04:21:01;;;;;;;;;2.50;2.50;;;;;25.07;54.48;101354.19;2097058;28;46637;-55
2023/07/18 04:22:02;;;;;;;;;3.20;3.20;;;;;25.05;54.39;101354.28;2106013;28;46469;-57
2023/07/18 04:23:02;;;;;;;;;3.00;2.00;;;;;25.05;54.12;101353.44;2105918;28;46547;-56
2023/07/18 04:24:04;;;;;;;;;2.50;2.50;;;;;25.04;54.21;101351.69;2106385;28;46572;-56
2023/07/18 04:25:05;;;;;;;;;1.80;1.80;;;;;25.04;54.08;101348.97;2105792;28;46341;-57
2023/07/18 04:26:09;;;;;;;;;3.00;3.00;;;;;25.06;53.77;101349.72;2106031;28;46360;-57
2023/07/18 04:27:09;;;;;;;;;3.20;3.20;;;;;25.05;53.83;101354.28;2105805;28;46343;-58
2023/07/18 04:28:09;;;;;;;;;2.33;1.67;;;;;25.05;54.05;101354.28;2105978;28;46370;-57
2023/07/18 04:29:10;;;;;;;;;2.00;2.00;;;;;25.04;54.17;101349.84;2096595;28;46863;-56
2023/07/18 04:30:10;;;;;;;;;2.00;2.00;;;;;25.03;54.05;101352.66;2097199;28;46333;-57
2023/07/18 04:31:13;;;;;;;;;2.67;2.67;;;;;25.03;53.84;101348.13;2079657;28;46781;-56
2023/07/18 04:32:13;;;;;;;;;2.00;2.00;;;;;25.03;54.21;101341.78;2080263;28;46621;-58
2023/07/18 04:33:14;;;;;;;;;2.67;2.67;;;;;25.03;54.15;101347.22;2105781;28;46331;-56
2023/07/18 04:34:15;;;;;;;;;1.67;1.67;;;;;25.02;53.63;101334.63;2106152;28;46914;-57
2023/07/18 04:35:16;;;;;;;;;2.75;2.25;;;;;25.00;53.99;101340.13;2105540;28;46323;-58
2023/07/18 04:36:17;;;;;;;;;4.33;4.33;;;;;24.98;54.08;101335.78;2087900;28;46827;-57
2023/07/18 04:37:17;;;;;;;;;2.67;1.00;;;;;24.98;54.32;101339.38;2087982;28;46596;-57
2023/07/18 04:38:18;;;;;;;;;2.00;2.00;;;;;24.93;54.12;101331.56;2105606;28;46603;-58
2023/07/18 04:39:18;;;;;;;;;1.33;1.00;;;;;24.92;53.91;101334.41;2106222;28;46509;-58
2023/07/18 04:40:18;;;;;;;;;3.00;1.00;;;;;24.90;54.21;101333.63;2105864;28;46336;-58
2023/07/18 04:41:19;;;;;;;;;2.67;2.67;;;;;24.89;54.54;101335.47;2105662;28;46706;-56
2023/07/18 04:42:19;;;;;;;;;2.00;2.00;;;;;24.87;54.16;101326.56;2105945;28;46850;-57
2023/07/18 04:43:19;;;;;;;;;2.00;2.00;;;;;24.85;54.54;101325.81;2105989;27;46427;-56